Time,TemperatureF,DewpointF,PressureIn,WindDirection,WindDirectionDegrees,WindSpeedMPH,WindSpeedGustMPH,Humidity,HourlyPrecipIn,Conditions,Clouds,dailyrainin,SoftwareType,DateUTC
2013-09-05 00:00:00,61.4,55.2,30.12,SSW,203,0.0,0.0,80,0.00,,,0.00,WUHU216HW,2013-09-05 05:00:00,
2013-09-05 00:05:00,61.4,55.2,30.12,SSW,203,0.0,0.0,80,0.00,,,0.00,WUHU216HW,2013-09-05 05:05:00,
2013-09-05 00:30:00,60.7,54.2,30.12,SW,225,0.0,0.0,79,0.00,,,0.00,WUHU216HW,2013-09-05 05:30:00,
2013-09-05 00:35:00,60.7,54.2,30.12,SW,225,0.0,0.0,79,0.00,,,0.00,WUHU216HW,2013-09-05 05:35:00,
2013-09-05 01:00:00,60.0,53.9,30.12,SSW,203,0.0,0.0,80,0.00,,,0.00,WUHU216HW,2013-09-05 06:00:00,
2013-09-05 01:05:00,60.0,53.9,30.12,SSW,203,0.0,0.0,80,0.00,,,0.00,WUHU216HW,2013-09-05 06:05:00,
2013-09-05 01:30:00,59.3,53.5,30.12,SW,225,0.0,0.0,81,0.00,,,0.00,WUHU216HW,2013-09-05 06:30:00,
2013-09-05 01:35:00,59.3,53.5,30.12,SW,225,0.0,0.0,81,0.00,,,0.00,WUHU216HW,2013-09-05 06:35:00,
2013-09-05 02:00:00,58.7,52.9,30.12,SW,225,0.0,0.0,81,0.00,,,0.00,WUHU216HW,2013-09-05 07:00:00,
2013-09-05 02:05:00,58.7,52.9,30.12,SW,225,0.0,0.0,81,0.00,,,0.00,WUHU216HW,2013-09-05 07:05:00,
2013-09-05 02:30:00,58.2,52.8,30.12,SW,225,0.0,0.0,82,0.00,,,0.00,WUHU216HW,2013-09-05 07:30:00,
2013-09-05 02:35:00,58.2,52.8,30.12,SW,225,0.0,0.0,82,0.00,,,0.00,WUHU216HW,2013-09-05 07:35:00,
2013-09-05 03:00:00,57.8,52.4,30.12,SSW,203,0.0,0.0,82,0.00,,,0.00,WUHU216HW,2013-09-05 08:00:00,
2013-09-05 03:05:00,57.8,52.4,30.12,SSW,203,0.0,0.0,82,0.00,,,0.00,WUHU216HW,2013-09-05 08:05:00,
2013-09-05 03:30:00,57.3,52.2,30.12,SW,225,0.0,0.0,83,0.00,,,0.00,WUHU216HW,2013-09-05 08:30:00,
2013-09-05 03:35:00,57.3,52.2,30.12,SW,225,0.0,0.0,83,0.00,,,0.00,WUHU216HW,2013-09-05 08:35:00,
2013-09-05 04:00:00,56.8,51.7,30.11,SSW,203,0.0,0.0,83,0.00,,,0.00,WUHU216HW,2013-09-05 09:00:00,
2013-09-05 04:05:00,56.8,51.7,30.11,SSW,203,0.0,0.0,83,0.00,,,0.00,WUHU216HW,2013-09-05 09:05:00,
2013-09-05 04:30:00,56.6,51.5,30.11,South,180,0.0,0.0,83,0.00,,,0.00,WUHU216HW,2013-09-05 09:30:00,
2013-09-05 04:35:00,56.6,51.5,30.11,South,180,0.0,0.0,83,0.00,,,0.00,WUHU216HW,2013-09-05 09:35:00,
2013-09-05 05:00:00,56.0,51.2,30.12,SW,225,0.0,0.0,84,0.00,,,0.00,WUHU216HW,2013-09-05 10:00:00,
2013-09-05 05:05:00,56.0,51.2,30.12,SW,225,0.0,0.0,84,0.00,,,0.00,WUHU216HW,2013-09-05 10:05:00,
2013-09-05 05:30:00,55.7,50.6,30.12,SW,225,0.0,0.0,83,0.00,,,0.00,WUHU216HW,2013-09-05 10:30:00,
2013-09-05 05:35:00,55.7,50.6,30.12,SW,225,0.0,0.0,83,0.00,,,0.00,WUHU216HW,2013-09-05 10:35:00,
2013-09-05 06:00:00,55.3,50.6,30.12,SW,225,0.0,0.0,84,0.00,,,0.00,WUHU216HW,2013-09-05 11:00:00,
2013-09-05 06:05:00,55.3,50.6,30.12,SW,225,0.0,0.0,84,0.00,,,0.00,WUHU216HW,2013-09-05 11:05:00,
2013-09-05 06:30:00,55.0,50.3,30.12,SW,225,0.0,0.0,84,0.00,,,0.00,WUHU216HW,2013-09-05 11:30:00,
2013-09-05 06:35:00,55.0,50.3,30.12,SW,225,0.0,0.0,84,0.00,,,0.00,WUHU216HW,2013-09-05 11:35:00,
2013-09-05 07:00:00,54.8,50.4,30.13,SW,225,0.0,0.0,85,0.00,,,0.00,WUHU216HW,2013-09-05 12:00:00,
2013-09-05 07:05:00,54.8,50.4,30.13,SW,225,0.0,0.0,85,0.00,,,0.00,WUHU216HW,2013-09-05 12:05:00,
2013-09-05 07:30:00,55.3,51.2,30.14,WSW,248,0.0,0.0,86,0.00,,,0.00,WUHU216HW,2013-09-05 12:30:00,
2013-09-05 07:35:00,55.3,51.2,30.14,WSW,248,0.0,0.0,86,0.00,,,0.00,WUHU216HW,2013-09-05 12:35:00,
2013-09-05 08:00:00,56.4,52.6,30.15,SW,225,0.0,0.0,87,0.00,,,0.00,WUHU216HW,2013-09-05 13:00:00,
2013-09-05 08:05:00,56.4,52.6,30.15,SW,225,0.0,0.0,87,0.00,,,0.00,WUHU216HW,2013-09-05 13:05:00,
2013-09-05 08:30:00,58.7,55.4,30.16,South,180,0.0,0.0,89,0.00,,,0.00,WUHU216HW,2013-09-05 13:30:00,
2013-09-05 08:35:00,58.7,55.4,30.16,South,180,0.0,0.0,89,0.00,,,0.00,WUHU216HW,2013-09-05 13:35:00,
2013-09-05 09:00:00,62.9,59.3,30.17,North,0,0.0,0.0,88,0.00,,,0.00,WUHU216HW,2013-09-05 14:00:00,
2013-09-05 09:05:00,62.9,59.3,30.17,North,0,0.0,0.0,88,0.00,,,0.00,WUHU216HW,2013-09-05 14:05:00,
2013-09-05 09:30:00,66.3,61.0,30.17,NNW,338,0.0,0.0,83,0.00,,,0.00,WUHU216HW,2013-09-05 14:30:00,
2013-09-05 09:35:00,66.3,61.0,30.17,NNW,338,0.0,0.0,83,0.00,,,0.00,WUHU216HW,2013-09-05 14:35:00,
2013-09-05 10:00:00,70.3,63.2,30.18,East,90,0.0,0.0,78,0.00,,,0.00,WUHU216HW,2013-09-05 15:00:00,
2013-09-05 10:05:00,70.3,63.2,30.18,East,90,0.0,0.0,78,0.00,,,0.00,WUHU216HW,2013-09-05 15:05:00,
2013-09-05 10:30:00,73.7,65.1,30.18,NNW,338,0.0,0.0,74,0.00,,,0.00,WUHU216HW,2013-09-05 15:30:00,
2013-09-05 10:35:00,73.7,65.1,30.18,NNW,338,0.0,0.0,74,0.00,,,0.00,WUHU216HW,2013-09-05 15:35:00,
2013-09-05 11:00:00,75.8,65.1,30.17,North,0,0.0,0.0,69,0.00,,,0.00,WUHU216HW,2013-09-05 16:00:00,
2013-09-05 11:05:00,75.8,65.1,30.17,North,0,0.0,0.0,69,0.00,,,0.00,WUHU216HW,2013-09-05 16:05:00,
2013-09-05 11:30:00,78.7,64.8,30.17,ESE,113,0.0,0.0,62,0.00,,,0.00,WUHU216HW,2013-09-05 16:30:00,
2013-09-05 11:35:00,78.7,64.8,30.17,ESE,113,0.0,0.0,62,0.00,,,0.00,WUHU216HW,2013-09-05 16:35:00,
2013-09-05 12:00:00,80.9,63.4,30.16,SSW,203,0.0,0.0,55,0.00,,,0.00,WUHU216HW,2013-09-05 17:00:00,
2013-09-05 12:05:00,80.9,63.4,30.16,SSW,203,0.0,0.0,55,0.00,,,0.00,WUHU216HW,2013-09-05 17:05:00,
2013-09-05 12:30:00,83.4,64.1,30.15,SW,225,0.0,0.0,52,0.00,,,0.00,WUHU216HW,2013-09-05 17:30:00,
2013-09-05 12:35:00,83.4,64.1,30.15,SW,225,0.0,0.0,52,0.00,,,0.00,WUHU216HW,2013-09-05 17:35:00,
2013-09-05 13:00:00,84.7,62.9,30.15,East,90,0.0,0.0,48,0.00,,,0.00,WUHU216HW,2013-09-05 18:00:00,
2013-09-05 13:05:00,84.7,62.9,30.15,East,90,0.0,0.0,48,0.00,,,0.00,WUHU216HW,2013-09-05 18:05:00,
2013-09-05 13:30:00,85.6,63.2,30.13,SSE,158,0.0,0.0,47,0.00,,,0.00,WUHU216HW,2013-09-05 18:30:00,
2013-09-05 13:35:00,85.6,63.2,30.13,SSE,158,0.0,0.0,47,0.00,,,0.00,WUHU216HW,2013-09-05 18:35:00,
2013-09-05 14:00:00,86.6,62.8,30.12,ENE,68,0.0,0.0,45,0.00,,,0.00,WUHU216HW,2013-09-05 19:00:00,
2013-09-05 14:05:00,86.6,62.8,30.12,ENE,68,0.0,0.0,45,0.00,,,0.00,WUHU216HW,2013-09-05 19:05:00,
2013-09-05 14:30:00,88.3,64.3,30.11,SSW,203,0.0,0.0,45,0.00,,,0.00,WUHU216HW,2013-09-05 19:30:00,
2013-09-05 14:33:00,88.3,64.3,30.11,SSW,203,0.0,0.0,45,0.00,,,0.00,WUHU216HW,2013-09-05 19:33:00,
2013-09-05 14:38:00,88.3,64.3,30.11,SSW,203,0.0,0.0,45,0.00,,,0.00,WUHU216HW,2013-09-05 19:38:00,
2013-09-05 15:00:00,88.4,64.4,30.10,SSE,158,0.0,0.0,45,0.00,,,0.00,WUHU216HW,2013-09-05 20:00:00,
2013-09-05 15:05:00,88.4,64.4,30.10,SSE,158,0.0,0.0,45,0.00,,,0.00,WUHU216HW,2013-09-05 20:05:00,
2013-09-05 15:30:00,89.3,63.2,30.10,ESE,113,0.0,0.0,42,0.00,,,0.00,WUHU216HW,2013-09-05 20:30:00,
2013-09-05 15:35:00,89.3,63.2,30.10,ESE,113,0.0,0.0,42,0.00,,,0.00,WUHU216HW,2013-09-05 20:35:00,
2013-09-05 16:00:00,89.5,63.4,30.10,SSE,158,0.0,0.0,42,0.00,,,0.00,WUHU216HW,2013-09-05 21:00:00,
2013-09-05 16:05:00,89.5,63.4,30.10,SSE,158,0.0,0.0,42,0.00,,,0.00,WUHU216HW,2013-09-05 21:05:00,
2013-09-05 16:30:00,89.7,62.9,30.10,SSW,203,0.0,0.0,41,0.00,,,0.00,WUHU216HW,2013-09-05 21:30:00,
2013-09-05 16:36:00,89.7,62.9,30.10,SSW,203,0.0,0.0,41,0.00,,,0.00,WUHU216HW,2013-09-05 21:36:00,
2013-09-05 17:00:00,90.8,63.9,30.09,SSW,203,0.0,0.0,41,0.00,,,0.00,WUHU216HW,2013-09-05 22:00:00,
2013-09-05 17:06:00,90.8,63.9,30.09,SSW,203,0.0,0.0,41,0.00,,,0.00,WUHU216HW,2013-09-05 22:06:00,
2013-09-05 17:30:00,90.8,63.9,30.09,SE,135,0.0,0.0,41,0.00,,,0.00,WUHU216HW,2013-09-05 22:30:00,
2013-09-05 17:35:00,90.8,63.9,30.09,SE,135,0.0,0.0,41,0.00,,,0.00,WUHU216HW,2013-09-05 22:35:00,
2013-09-05 18:00:00,91.0,64.8,30.09,SE,135,0.0,0.0,42,0.00,,,0.00,WUHU216HW,2013-09-05 23:00:00,
2013-09-05 18:05:00,91.0,64.8,30.09,SE,135,0.0,0.0,42,0.00,,,0.00,WUHU216HW,2013-09-05 23:05:00,
2013-09-05 18:30:00,90.2,64.0,30.08,SSE,158,0.0,0.0,42,0.00,,,0.00,WUHU216HW,2013-09-05 23:30:00,
2013-09-05 18:36:00,90.2,64.0,30.08,SSE,158,0.0,0.0,42,0.00,,,0.00,WUHU216HW,2013-09-05 23:36:00,
2013-09-05 19:00:00,87.4,64.8,30.08,South,180,0.0,0.0,47,0.00,,,0.00,WUHU216HW,2013-09-06 00:00:00,
2013-09-05 19:05:00,87.4,64.8,30.08,South,180,0.0,0.0,47,0.00,,,0.00,WUHU216HW,2013-09-06 00:05:00,
2013-09-05 19:30:00,82.1,64.0,30.08,SSW,203,0.0,0.0,54,0.00,,,0.00,WUHU216HW,2013-09-06 00:30:00,
2013-09-05 19:35:00,82.1,64.0,30.08,SSW,203,0.0,0.0,54,0.00,,,0.00,WUHU216HW,2013-09-06 00:35:00,
2013-09-05 20:00:00,77.5,61.8,30.08,SSW,203,0.0,0.0,58,0.00,,,0.00,WUHU216HW,2013-09-06 01:00:00,
2013-09-05 20:05:00,77.5,61.8,30.08,SSW,203,0.0,0.0,58,0.00,,,0.00,WUHU216HW,2013-09-06 01:05:00,
2013-09-05 20:30:00,74.0,60.8,30.08,SSW,203,0.0,0.0,63,0.00,,,0.00,WUHU216HW,2013-09-06 01:30:00,
2013-09-05 20:35:00,74.0,60.8,30.08,SSW,203,0.0,0.0,63,0.00,,,0.00,WUHU216HW,2013-09-06 01:35:00,
2013-09-05 21:00:00,71.5,59.7,30.09,WSW,248,0.0,0.0,66,0.00,,,0.00,WUHU216HW,2013-09-06 02:00:00,
2013-09-05 21:05:00,71.5,59.7,30.09,WSW,248,0.0,0.0,66,0.00,,,0.00,WUHU216HW,2013-09-06 02:05:00,
2013-09-05 21:30:00,69.9,59.4,30.10,SW,225,0.0,0.0,69,0.00,,,0.00,WUHU216HW,2013-09-06 02:30:00,
2013-09-05 21:35:00,69.9,59.4,30.10,SW,225,0.0,0.0,69,0.00,,,0.00,WUHU216HW,2013-09-06 02:35:00,
2013-09-05 22:00:00,68.1,58.1,30.10,South,180,0.0,0.0,70,0.00,,,0.00,WUHU216HW,2013-09-06 03:00:00,
2013-09-05 22:05:00,68.1,58.1,30.10,South,180,0.0,0.0,70,0.00,,,0.00,WUHU216HW,2013-09-06 03:05:00,
2013-09-05 22:30:00,66.5,57.3,30.11,SSW,203,0.0,0.0,72,0.00,,,0.00,WUHU216HW,2013-09-06 03:30:00,
2013-09-05 22:35:00,66.5,57.3,30.11,SSW,203,0.0,0.0,72,0.00,,,0.00,WUHU216HW,2013-09-06 03:35:00,
2013-09-05 23:00:00,65.4,57.0,30.11,SSW,203,0.0,0.0,74,0.00,,,0.00,WUHU216HW,2013-09-06 04:00:00,
2013-09-05 23:01:00,65.4,57.0,30.11,SSW,203,0.0,0.0,74,0.00,,,0.00,WUHU216HW,2013-09-06 04:01:00,
2013-09-05 23:02:00,65.4,57.0,30.11,SSW,203,0.0,0.0,74,0.00,,,0.00,WUHU216HW,2013-09-06 04:02:00,
2013-09-05 23:07:00,65.4,57.0,30.11,SSW,203,0.0,0.0,74,0.00,,,0.00,WUHU216HW,2013-09-06 04:07:00,
2013-09-05 23:30:00,64.5,56.5,30.11,SSW,203,0.0,0.0,75,0.00,,,0.00,WUHU216HW,2013-09-06 04:30:00,
2013-09-05 23:35:00,64.5,56.5,30.11,SSW,203,0.0,0.0,75,0.00,,,0.00,WUHU216HW,2013-09-06 04:35:00,